createdAt,value
2018-09-18T00:00:18.498Z,4.20
2018-09-18T00:01:18.482Z,3.40
2018-09-18T00:02:18.471Z,4.50
2018-09-18T00:03:18.476Z,4.10
2018-09-18T00:04:18.443Z,4.20
2018-09-18T00:05:18.425Z,6.00
2018-09-18T00:06:18.417Z,3.90
2018-09-18T00:07:18.412Z,4.50
2018-09-18T00:08:18.400Z,5.90
2018-09-18T00:09:18.372Z,5.30
2018-09-18T00:10:18.363Z,5.70
2018-09-18T00:11:18.343Z,5.70
2018-09-18T00:12:18.342Z,4.40
2018-09-18T00:13:18.316Z,5.20
2018-09-18T00:14:18.319Z,3.80
2018-09-18T00:15:18.288Z,3.60
2018-09-18T00:16:18.271Z,6.30
2018-09-18T00:17:18.255Z,5.10
2018-09-18T00:18:18.245Z,5.00
2018-09-18T00:19:18.243Z,5.40
2018-09-18T00:20:18.214Z,4.60
2018-09-18T00:21:18.201Z,5.70
2018-09-18T00:22:18.204Z,6.40
2018-09-18T00:23:18.172Z,5.30
2018-09-18T00:24:18.159Z,4.20
2018-09-18T00:25:18.144Z,4.60
2018-09-18T00:26:18.136Z,5.10
2018-09-18T00:27:18.119Z,5.10
2018-09-18T00:28:18.119Z,3.60
2018-09-18T00:29:18.107Z,4.70
2018-09-18T00:30:18.091Z,4.90
2018-09-18T00:31:18.059Z,5.20
2018-09-18T00:32:18.046Z,4.80
2018-09-18T00:33:18.032Z,3.60
2018-09-18T00:34:18.020Z,4.10
2018-09-18T00:35:18.042Z,5.50
2018-09-18T00:36:17.986Z,5.90
2018-09-18T00:37:17.974Z,4.50
2018-09-18T00:38:17.960Z,4.20
2018-09-18T00:39:17.945Z,3.60
2018-09-18T00:40:17.939Z,4.40
2018-09-18T00:41:17.932Z,3.90
2018-09-18T00:42:17.901Z,4.80
2018-09-18T00:43:17.888Z,4.60
2018-09-18T00:44:17.879Z,5.10
2018-09-18T00:45:17.859Z,3.80
2018-09-18T00:46:17.863Z,4.30
2018-09-18T00:47:17.830Z,4.30
2018-09-18T00:48:17.815Z,3.80
2018-09-18T00:49:17.805Z,3.40
2018-09-18T00:50:17.786Z,7.60
2018-09-18T00:51:17.792Z,4.40
2018-09-18T00:52:17.763Z,5.70
2018-09-18T00:53:17.745Z,5.80
2018-09-18T00:54:17.729Z,5.00
2018-09-18T00:55:17.716Z,5.60
2018-09-18T00:56:17.698Z,5.10
2018-09-18T00:57:17.701Z,6.30
2018-09-18T00:58:17.674Z,5.80
2018-09-18T00:59:17.659Z,4.40
2018-09-18T01:00:17.649Z,3.90
2018-09-18T01:01:17.643Z,5.50
2018-09-18T01:02:17.617Z,4.60
2018-09-18T01:03:17.603Z,7.00
2018-09-18T01:04:17.582Z,4.50
2018-09-18T01:05:17.574Z,5.00
2018-09-18T01:06:17.575Z,4.20
2018-09-18T01:07:17.585Z,4.80
2018-09-18T01:08:17.566Z,6.20
2018-09-18T01:09:17.517Z,4.00
2018-09-18T01:10:17.505Z,4.90
2018-09-18T01:11:17.503Z,5.30
2018-09-18T01:12:17.477Z,3.80
2018-09-18T01:13:17.461Z,4.00
2018-09-18T01:14:17.447Z,4.80
2018-09-18T01:15:17.432Z,3.90
2018-09-18T01:16:17.417Z,4.20
2018-09-18T01:17:17.417Z,4.50
2018-09-18T01:18:17.389Z,5.70
2018-09-18T01:19:17.371Z,5.10
2018-09-18T01:20:17.359Z,4.20
2018-09-18T01:21:17.343Z,4.90
2018-09-18T01:22:17.351Z,5.90
2018-09-18T01:23:17.320Z,5.50
2018-09-18T01:24:17.301Z,4.90
2018-09-18T01:25:17.288Z,5.80
2018-09-18T01:26:17.272Z,4.00
2018-09-18T01:27:17.259Z,3.60
2018-09-18T01:28:17.259Z,4.50
2018-09-18T01:29:17.231Z,4.10
2018-09-18T01:30:17.214Z,5.10
2018-09-18T01:31:17.199Z,5.20
2018-09-18T01:32:17.186Z,5.80
2018-09-18T01:33:17.186Z,5.00
2018-09-18T01:34:17.158Z,4.90
2018-09-18T01:35:17.144Z,4.30
2018-09-18T01:36:17.129Z,4.70
2018-09-18T01:37:17.114Z,5.70
2018-09-18T01:38:17.116Z,4.00
2018-09-18T01:39:17.083Z,3.60
2018-09-18T01:40:17.068Z,4.50
2018-09-18T01:41:17.052Z,5.90
2018-09-18T01:42:17.041Z,5.10
2018-09-18T01:43:17.046Z,3.40
2018-09-18T01:44:17.016Z,3.90
2018-09-18T01:45:16.995Z,3.80
2018-09-18T01:46:16.984Z,3.50
2018-09-18T01:47:16.972Z,3.60
2018-09-18T01:48:16.955Z,3.00
2018-09-18T01:49:16.952Z,3.50
2018-09-18T01:50:16.931Z,3.40
2018-09-18T01:51:16.911Z,5.90
2018-09-18T01:52:16.901Z,5.30
2018-09-18T01:53:16.901Z,3.50
2018-09-18T01:54:16.885Z,3.30
2018-09-18T01:55:16.858Z,5.30
2018-09-18T01:56:16.842Z,4.00
2018-09-18T01:57:16.822Z,5.40
2018-09-18T01:58:16.831Z,5.10
2018-09-18T01:59:16.803Z,6.10
2018-09-18T02:00:16.783Z,5.50
2018-09-18T02:01:16.765Z,4.80
2018-09-18T02:02:16.752Z,3.90
2018-09-18T02:03:16.763Z,4.20
2018-09-18T02:04:16.743Z,3.50
2018-09-18T02:05:16.711Z,3.80
2018-09-18T02:06:16.698Z,3.70
2018-09-18T02:07:16.679Z,3.50
2018-09-18T02:08:16.672Z,4.10
2018-09-18T02:09:16.668Z,4.30
2018-09-18T02:10:16.641Z,4.20
2018-09-18T02:11:16.625Z,4.60
2018-09-18T02:12:16.615Z,6.10
2018-09-18T02:13:16.597Z,4.50
2018-09-18T02:14:16.596Z,3.30
2018-09-18T02:15:16.583Z,4.90
2018-09-18T02:16:16.555Z,5.00
2018-09-18T02:17:16.539Z,4.20
2018-09-18T02:18:16.527Z,3.70
2018-09-18T02:19:16.548Z,3.50
2018-09-18T02:20:16.497Z,3.70
2018-09-18T02:21:16.481Z,5.20
2018-09-18T02:22:16.469Z,4.10
2018-09-18T02:23:16.456Z,4.20
2018-09-18T02:24:16.439Z,3.40
2018-09-18T02:25:16.441Z,3.90
2018-09-18T02:26:16.410Z,3.60
2018-09-18T02:27:16.395Z,3.90
2018-09-18T02:28:16.381Z,6.30
2018-09-18T02:29:16.366Z,3.50
2018-09-18T02:30:16.367Z,5.10
2018-09-18T02:31:16.348Z,5.00
2018-09-18T02:32:16.319Z,4.70
2018-09-18T02:33:16.311Z,6.30
2018-09-18T02:34:16.290Z,4.00
2018-09-18T02:35:16.285Z,3.60
2018-09-18T02:36:16.280Z,4.10
2018-09-18T02:37:16.251Z,4.70
2018-09-18T02:38:16.231Z,4.20
2018-09-18T02:39:16.219Z,5.60
2018-09-18T02:40:16.203Z,5.20
2018-09-18T02:41:16.203Z,3.90
2018-09-18T02:42:16.191Z,5.20
2018-09-18T02:43:16.165Z,3.70
2018-09-18T02:44:16.152Z,3.70
2018-09-18T02:45:16.135Z,4.20
2018-09-18T02:46:16.121Z,5.10
2018-09-18T02:47:16.146Z,5.30
2018-09-18T02:48:16.091Z,3.50
2018-09-18T02:49:16.073Z,4.10
2018-09-18T02:50:16.064Z,4.40
2018-09-18T02:51:16.046Z,5.90
2018-09-18T02:52:16.035Z,4.60
2018-09-18T02:53:16.029Z,4.70
2018-09-18T02:54:16.002Z,4.90
2018-09-18T02:55:15.990Z,4.50
2018-09-18T02:56:15.976Z,3.90
2018-09-18T02:57:15.973Z,4.10
2018-09-18T02:58:15.964Z,3.30
2018-09-18T02:59:15.932Z,4.00
2018-09-18T03:00:15.916Z,5.30
2018-09-18T03:01:15.903Z,4.10
2018-09-18T03:02:16.708Z,3.70
2018-09-18T03:03:15.916Z,4.40
2018-09-18T03:04:15.862Z,3.70
2018-09-18T03:05:15.846Z,3.50
2018-09-18T03:06:15.829Z,4.30
2018-09-18T03:07:15.822Z,4.40
2018-09-18T03:08:15.801Z,4.40
2018-09-18T03:09:15.804Z,5.10
2018-09-18T03:10:15.775Z,4.20
2018-09-18T03:11:15.825Z,6.70
2018-09-18T03:12:15.748Z,5.00
2018-09-18T03:13:15.728Z,4.40
2018-09-18T03:14:15.732Z,3.40
2018-09-18T03:15:15.700Z,4.40
2018-09-18T03:16:15.687Z,4.80
2018-09-18T03:17:15.672Z,4.20
2018-09-18T03:18:15.659Z,3.50
2018-09-18T03:19:15.658Z,3.80
2018-09-18T03:20:15.629Z,4.50
2018-09-18T03:21:16.716Z,4.80
2018-09-18T03:22:15.605Z,4.40
2018-09-18T03:23:15.586Z,4.50
2018-09-18T03:24:15.588Z,4.90
2018-09-18T03:25:15.560Z,4.30
2018-09-18T03:26:15.545Z,3.40
2018-09-18T03:27:15.533Z,6.60
2018-09-18T03:28:15.517Z,4.90
2018-09-18T03:29:15.516Z,3.40
2018-09-18T03:30:15.487Z,3.70
2018-09-18T03:31:15.469Z,3.80
2018-09-18T03:32:15.463Z,4.20
2018-09-18T03:33:15.440Z,4.40
2018-09-18T03:34:15.459Z,3.50
2018-09-18T03:35:15.408Z,3.40
2018-09-18T03:36:15.395Z,4.20
2018-09-18T03:37:15.379Z,3.60
2018-09-18T03:38:15.370Z,3.30
2018-09-18T03:39:15.352Z,3.90
2018-09-18T03:40:15.353Z,5.20
2018-09-18T03:41:15.320Z,3.90
2018-09-18T03:42:15.309Z,4.20
2018-09-18T03:43:15.294Z,3.70
2018-09-18T03:44:15.276Z,3.80
2018-09-18T03:45:15.281Z,5.50
2018-09-18T03:46:15.257Z,5.90
2018-09-18T03:47:15.236Z,4.20
2018-09-18T03:48:15.222Z,6.60
2018-09-18T03:49:15.206Z,3.40
2018-09-18T03:50:15.208Z,3.90
2018-09-18T03:51:15.192Z,4.50
2018-09-18T03:52:15.167Z,3.90
2018-09-18T03:53:15.149Z,3.70
2018-09-18T03:54:15.141Z,4.20
2018-09-18T03:55:15.124Z,3.50
2018-09-18T03:56:15.106Z,4.50
2018-09-18T03:57:15.103Z,3.40
2018-09-18T03:58:15.079Z,5.10
2018-09-18T03:59:15.063Z,3.20
2018-09-18T04:00:15.060Z,6.00
2018-09-18T04:01:15.048Z,4.80
2018-09-18T04:02:15.017Z,4.00
2018-09-18T04:03:15.001Z,3.60
2018-09-18T04:04:14.991Z,4.30
2018-09-18T04:05:14.977Z,4.50
2018-09-18T04:06:14.974Z,5.00
2018-09-18T04:07:14.971Z,4.10
2018-09-18T04:08:14.933Z,4.90
2018-09-18T04:09:14.918Z,4.40
2018-09-18T04:10:14.901Z,4.50
2018-09-18T04:11:18.729Z,4.50
2018-09-18T04:12:15.761Z,5.10
2018-09-18T04:13:14.864Z,4.50
2018-09-18T04:14:14.846Z,3.40
2018-09-18T04:15:14.831Z,3.60
2018-09-18T04:16:14.815Z,3.30
2018-09-18T04:17:14.862Z,3.30
2018-09-18T04:18:14.783Z,4.40
2018-09-18T04:19:14.778Z,3.90
2018-09-18T04:20:14.755Z,3.00
2018-09-18T04:21:14.739Z,4.50
2018-09-18T04:22:14.744Z,3.80
2018-09-18T04:23:14.716Z,4.80
2018-09-18T04:24:14.700Z,3.70
2018-09-18T04:25:14.684Z,4.50
2018-09-18T04:26:14.668Z,3.40
2018-09-18T04:27:14.684Z,4.20
2018-09-18T04:28:14.642Z,3.60
2018-09-18T04:29:14.628Z,3.50
2018-09-18T04:30:14.611Z,3.90
2018-09-18T04:31:14.595Z,3.40
2018-09-18T04:32:14.610Z,6.30
2018-09-18T04:33:14.573Z,3.60
2018-09-18T04:34:14.553Z,4.30
2018-09-18T04:35:14.540Z,3.60
2018-09-18T04:36:14.524Z,4.60
2018-09-18T04:37:14.511Z,3.40
2018-09-18T04:38:14.508Z,4.30
2018-09-18T04:39:14.492Z,3.50
2018-09-18T04:40:14.467Z,4.00
2018-09-18T04:41:14.470Z,4.30
2018-09-18T04:42:14.439Z,3.80
2018-09-18T04:43:14.425Z,5.00
2018-09-18T04:44:14.426Z,3.70
2018-09-18T04:45:14.393Z,4.30
2018-09-18T04:46:14.394Z,3.90
2018-09-18T04:47:14.365Z,4.70
2018-09-18T04:48:14.351Z,4.30
2018-09-18T04:49:14.335Z,4.10
2018-09-18T04:50:14.341Z,4.50
2018-09-18T04:51:14.308Z,3.40
2018-09-18T04:52:14.293Z,4.20
2018-09-18T04:53:14.278Z,4.30
2018-09-18T04:54:14.260Z,4.60
2018-09-18T04:55:14.263Z,4.80
2018-09-18T04:56:14.251Z,4.00
2018-09-18T04:57:14.218Z,3.50
2018-09-18T04:58:14.203Z,4.90
2018-09-18T04:59:14.242Z,5.00
2018-09-18T05:00:14.179Z,3.40
2018-09-18T05:01:14.198Z,3.50
2018-09-18T05:02:14.266Z,4.20
2018-09-18T05:03:14.135Z,3.70
2018-09-18T05:04:14.126Z,3.80
2018-09-18T05:05:14.119Z,4.10
2018-09-18T05:06:14.088Z,3.70
2018-09-18T05:07:14.074Z,4.50
2018-09-18T05:08:14.059Z,4.40
2018-09-18T05:09:14.116Z,4.40
2018-09-18T05:10:14.033Z,4.30
2018-09-18T05:11:14.024Z,3.50
2018-09-18T05:12:14.004Z,3.60
2018-09-18T05:13:13.988Z,4.80
2018-09-18T05:14:13.989Z,4.80
2018-09-18T05:15:13.959Z,3.50
2018-09-18T05:16:13.960Z,4.10
2018-09-18T05:17:13.927Z,3.70
2018-09-18T05:18:13.915Z,4.40
2018-09-18T05:19:13.900Z,4.40
2018-09-18T05:20:13.887Z,6.00
2018-09-18T05:21:13.889Z,4.60
2018-09-18T05:22:13.851Z,3.50
2018-09-18T05:23:13.835Z,3.70
2018-09-18T05:24:13.826Z,6.00
2018-09-18T05:25:13.809Z,3.50
2018-09-18T05:26:13.799Z,3.70
2018-09-18T05:27:13.800Z,4.10
2018-09-18T05:28:13.768Z,4.60
2018-09-18T05:29:13.750Z,4.70
2018-09-18T05:30:13.772Z,3.80
2018-09-18T05:31:13.728Z,4.20
2018-09-18T05:32:13.712Z,5.30
2018-09-18T05:33:13.706Z,5.60
2018-09-18T05:34:13.677Z,4.40
2018-09-18T05:35:13.666Z,5.50
2018-09-18T05:36:13.651Z,3.80
2018-09-18T05:37:13.636Z,5.10
2018-09-18T05:38:13.635Z,4.90
2018-09-18T05:39:13.608Z,4.20
2018-09-18T05:40:13.592Z,4.40
2018-09-18T05:41:13.578Z,4.60
2018-09-18T05:42:13.575Z,4.90
2018-09-18T05:43:13.567Z,6.30
2018-09-18T05:44:13.537Z,5.00
2018-09-18T05:45:13.522Z,4.00
2018-09-18T05:46:13.513Z,4.60
2018-09-18T05:47:13.520Z,5.60
2018-09-18T05:48:13.510Z,4.30
2018-09-18T05:49:13.475Z,5.20
2018-09-18T05:50:13.452Z,3.80
2018-09-18T05:51:13.437Z,4.20
2018-09-18T05:52:13.420Z,4.40
2018-09-18T05:53:13.403Z,4.50
2018-09-18T05:54:13.413Z,3.70
2018-09-18T05:55:13.379Z,4.70
2018-09-18T05:56:13.369Z,4.40
2018-09-18T05:57:13.347Z,4.30
2018-09-18T05:58:13.335Z,6.10
2018-09-18T05:59:13.338Z,5.50
2018-09-18T06:00:13.309Z,4.70
2018-09-18T06:01:13.290Z,5.10
2018-09-18T06:02:13.281Z,4.00
2018-09-18T06:03:13.264Z,4.00
2018-09-18T06:04:13.248Z,4.50
2018-09-18T06:05:13.249Z,4.50
2018-09-18T06:06:13.235Z,4.00
2018-09-18T06:07:13.203Z,6.00
2018-09-18T06:08:13.187Z,6.90
2018-09-18T06:09:13.178Z,6.60
2018-09-18T06:10:13.162Z,8.80
2018-09-18T06:11:13.151Z,8.70
2018-09-18T06:12:13.148Z,4.50
2018-09-18T06:13:13.122Z,6.90
2018-09-18T06:14:13.103Z,7.70
2018-09-18T06:15:13.091Z,7.60
2018-09-18T06:16:13.082Z,4.40
2018-09-18T06:17:13.075Z,5.50
2018-09-18T06:18:21.176Z,4.50
2018-09-18T06:19:13.087Z,5.20
2018-09-18T06:20:13.020Z,5.70
2018-09-18T06:21:13.005Z,4.40
2018-09-18T06:22:13.008Z,5.30
2018-09-18T06:23:12.975Z,6.30
2018-09-18T06:24:12.963Z,7.60
2018-09-18T06:25:12.944Z,5.20
2018-09-18T06:26:12.960Z,4.40
2018-09-18T06:27:12.938Z,4.10
2018-09-18T06:28:12.922Z,4.20
2018-09-18T06:29:12.890Z,4.70
2018-09-18T06:30:12.878Z,5.10
2018-09-18T06:32:58.704Z,4.30
2018-09-18T06:33:58.674Z,5.00
2018-09-18T06:34:58.665Z,5.50
2018-09-18T06:35:58.648Z,4.20
2018-09-18T06:36:58.725Z,5.10
2018-09-18T06:37:58.624Z,4.50
2018-09-18T06:38:58.624Z,4.80
2018-09-18T06:39:58.594Z,4.50
2018-09-18T06:40:58.576Z,6.30
2018-09-18T06:41:58.563Z,4.80
2018-09-18T06:42:58.549Z,5.90
2018-09-18T06:43:58.535Z,5.60
2018-09-18T06:44:58.533Z,3.70
2018-09-18T06:45:58.506Z,3.80
2018-09-18T06:46:58.490Z,4.60
2018-09-18T06:47:58.529Z,6.20
2018-09-18T06:48:58.481Z,5.40
2018-09-18T06:49:58.449Z,4.40
2018-09-18T06:50:58.436Z,7.40
2018-09-18T06:51:58.424Z,5.80
2018-09-18T06:52:58.407Z,5.70
2018-09-18T06:53:58.423Z,4.90
2018-09-18T06:54:58.376Z,5.10
2018-09-18T06:55:58.440Z,5.40
2018-09-18T06:56:58.353Z,4.60
2018-09-18T06:57:58.380Z,6.50
2018-09-18T06:58:58.337Z,4.10
2018-09-18T06:59:58.318Z,6.20
2018-09-18T07:00:58.298Z,5.40
2018-09-18T07:01:58.282Z,5.50
2018-09-18T07:02:58.266Z,7.80
2018-09-18T07:03:58.309Z,6.20
2018-09-18T07:04:58.241Z,5.20
2018-09-18T07:05:58.232Z,5.30
2018-09-18T07:06:58.220Z,4.70
2018-09-18T07:07:58.197Z,4.70
2018-09-18T07:08:58.184Z,4.00
2018-09-18T07:09:58.200Z,5.10
2018-09-18T07:10:58.160Z,4.60
2018-09-18T07:11:58.149Z,5.30
2018-09-18T07:12:58.136Z,5.30
2018-09-18T07:13:58.136Z,4.10
2018-09-18T07:14:58.105Z,4.70
2018-09-18T07:15:58.127Z,4.50
2018-09-18T07:16:58.077Z,4.50
2018-09-18T07:17:58.124Z,6.20
2018-09-18T07:18:58.050Z,3.90
2018-09-18T07:19:58.034Z,6.60
2018-09-18T07:20:58.021Z,6.00
2018-09-18T07:21:58.031Z,4.30
2018-09-18T07:22:57.993Z,5.80
2018-09-18T07:23:57.983Z,4.70
2018-09-18T07:24:58.093Z,4.70
2018-09-18T07:25:57.976Z,5.70
2018-09-18T07:26:57.973Z,4.30
2018-09-18T07:27:57.925Z,4.60
2018-09-18T07:28:57.914Z,5.50
2018-09-18T07:29:57.902Z,5.70
2018-09-18T07:30:57.887Z,5.10
2018-09-18T07:31:57.876Z,6.60
2018-09-18T07:32:57.876Z,3.90
2018-09-18T07:33:57.969Z,4.30
2018-09-18T07:34:57.843Z,6.20
2018-09-18T07:35:57.816Z,5.30
2018-09-18T07:36:57.807Z,5.40
2018-09-18T07:37:57.812Z,4.50
2018-09-18T07:38:57.784Z,6.30
2018-09-18T07:39:57.765Z,5.90
2018-09-18T07:40:57.812Z,6.80
2018-09-18T07:41:57.743Z,5.30
2018-09-18T07:42:57.750Z,4.90
2018-09-18T07:43:57.714Z,4.80
2018-09-18T07:44:57.705Z,4.50
2018-09-18T07:45:57.698Z,4.10
2018-09-18T07:46:57.679Z,4.80
2018-09-18T07:47:57.694Z,5.00
2018-09-18T07:48:57.651Z,5.30
2018-09-18T07:49:57.641Z,5.50
2018-09-18T07:50:57.626Z,6.00
2018-09-18T07:51:57.613Z,5.10
2018-09-18T07:52:57.615Z,4.40
2018-09-18T07:53:57.584Z,4.40
2018-09-18T07:54:57.577Z,4.30
2018-09-18T07:55:57.571Z,5.90
2018-09-18T07:56:57.550Z,5.30
2018-09-18T07:57:57.550Z,5.00
2018-09-18T07:58:57.524Z,4.40
2018-09-18T07:59:57.508Z,4.20
2018-09-18T08:00:57.573Z,5.60
2018-09-18T08:01:57.486Z,5.30
2018-09-18T08:02:57.468Z,6.50
2018-09-18T08:03:57.477Z,4.80
2018-09-18T08:04:57.446Z,6.50
2018-09-18T08:05:57.440Z,4.60
2018-09-18T08:06:57.420Z,5.70
2018-09-18T08:07:57.409Z,4.10
2018-09-18T08:08:57.434Z,5.70
2018-09-18T08:09:57.384Z,5.80
2018-09-18T08:10:57.413Z,7.50
2018-09-18T08:11:57.360Z,6.50
2018-09-18T08:12:57.345Z,4.70
2018-09-18T08:13:57.335Z,5.60
2018-09-18T08:14:57.342Z,6.70
2018-09-18T08:15:57.310Z,8.70
2018-09-18T08:16:57.314Z,5.70
2018-09-18T08:17:57.288Z,5.10
2018-09-18T08:18:57.447Z,5.00
2018-09-18T08:19:57.288Z,5.10
2018-09-18T08:20:57.253Z,5.00
2018-09-18T08:21:57.283Z,6.50
2018-09-18T08:22:57.224Z,4.80
2018-09-18T08:23:57.211Z,5.30
2018-09-18T08:24:57.204Z,4.40
2018-09-18T08:25:57.208Z,5.40
2018-09-18T08:26:57.193Z,6.50
2018-09-18T08:27:57.160Z,5.30
2018-09-18T08:28:57.158Z,5.20
2018-09-18T08:29:57.139Z,7.70
2018-09-18T08:30:57.148Z,6.40
2018-09-18T08:31:57.109Z,6.50
2018-09-18T08:32:57.198Z,6.60
2018-09-18T08:33:57.093Z,5.80
2018-09-18T08:34:57.078Z,7.70
2018-09-18T08:35:57.064Z,4.20
2018-09-18T08:36:57.073Z,7.30
2018-09-18T08:37:57.045Z,6.60
2018-09-18T08:38:57.053Z,7.00
2018-09-18T08:39:57.153Z,5.90
2018-09-18T08:40:57.008Z,5.70
2018-09-18T08:41:57.040Z,7.30
2018-09-18T08:42:57.062Z,6.20
2018-09-18T08:43:56.974Z,5.40
2018-09-18T08:44:56.961Z,6.30
2018-09-18T08:45:56.966Z,4.90
2018-09-18T08:46:56.963Z,7.20
2018-09-18T08:47:56.927Z,6.40
2018-09-18T08:48:56.923Z,6.10
2018-09-18T08:49:56.912Z,5.50
2018-09-18T08:50:56.920Z,5.20
2018-09-18T08:51:57.011Z,5.70
2018-09-18T08:52:56.963Z,7.90
2018-09-18T08:53:56.889Z,5.40
2018-09-18T08:54:56.847Z,5.80
2018-09-18T08:55:56.833Z,5.60
2018-09-18T08:57:17.860Z,5.10
2018-09-18T08:57:56.814Z,5.50
2018-09-18T08:58:56.803Z,4.90
2018-09-18T08:59:56.791Z,7.20
2018-09-18T09:00:56.778Z,7.00
2018-09-18T09:01:56.768Z,4.40
2018-09-18T09:02:56.771Z,5.30
2018-09-18T09:03:56.837Z,7.70
2018-09-18T09:04:56.781Z,5.10
2018-09-18T09:05:56.805Z,4.60
2018-09-18T09:06:56.717Z,5.80
2018-09-18T09:07:56.771Z,6.70
2018-09-18T09:08:56.842Z,5.40
2018-09-18T09:09:56.701Z,5.50
2018-09-18T09:10:56.703Z,7.00
2018-09-18T09:11:56.670Z,5.70
2018-09-18T09:12:56.659Z,5.30
2018-09-18T09:13:56.649Z,8.80
2018-09-18T09:14:56.723Z,4.80
2018-09-18T09:15:56.627Z,4.50
2018-09-18T09:16:56.620Z,7.40
2018-09-18T09:17:56.702Z,6.60
2018-09-18T09:18:56.627Z,5.70
2018-09-18T09:19:56.607Z,4.80
2018-09-18T09:20:56.691Z,5.10
2018-09-18T09:21:56.670Z,5.30
2018-09-18T09:22:56.723Z,6.60
2018-09-18T09:23:56.598Z,5.60
2018-09-18T09:24:56.578Z,6.00
2018-09-18T09:25:56.567Z,4.70
2018-09-18T09:26:56.559Z,5.40
2018-09-18T09:27:56.573Z,8.40
2018-09-18T09:28:56.544Z,6.50
2018-09-18T09:29:56.689Z,4.80
2018-09-18T09:30:56.532Z,6.00
2018-09-18T09:31:56.533Z,8.60
2018-09-18T09:32:56.537Z,6.10
2018-09-18T09:33:56.513Z,4.90
2018-09-18T09:34:56.510Z,5.90
2018-09-18T09:35:56.530Z,6.10
2018-09-18T09:36:56.506Z,5.40
2018-09-18T09:37:56.497Z,5.90
2018-09-18T09:38:56.545Z,6.00
2018-09-18T09:39:56.491Z,6.00
2018-09-18T09:40:56.507Z,5.70
2018-09-18T09:41:56.481Z,6.30
2018-09-18T09:42:56.485Z,4.80
2018-09-18T09:43:56.475Z,6.20
2018-09-18T09:44:56.512Z,5.20
2018-09-18T09:45:56.488Z,9.20
2018-09-18T09:46:56.465Z,6.10
2018-09-18T09:47:56.478Z,6.20
2018-09-18T09:48:56.458Z,5.30
2018-09-18T09:49:56.456Z,7.30
2018-09-18T09:50:56.472Z,6.00
2018-09-18T09:51:56.471Z,5.60
2018-09-18T09:52:56.449Z,6.80
2018-09-18T09:53:56.449Z,6.90
2018-09-18T09:54:56.443Z,5.70
2018-09-18T09:55:56.440Z,8.50
2018-09-18T09:56:56.575Z,12.90
2018-09-18T09:57:56.437Z,4.10
2018-09-18T09:58:56.433Z,7.90
2018-09-18T09:59:56.434Z,6.90
2018-09-18T10:00:56.427Z,9.20
2018-09-18T10:01:56.427Z,8.00
2018-09-18T10:02:56.502Z,6.60
2018-09-18T10:03:56.418Z,8.30
2018-09-18T10:04:56.418Z,8.70
2018-09-18T10:05:56.421Z,6.50
2018-09-18T10:06:56.430Z,9.30
2018-09-18T10:07:56.431Z,11.10
2018-09-18T10:08:56.408Z,6.90
2018-09-18T10:09:56.402Z,6.00
2018-09-18T10:10:56.540Z,9.30
2018-09-18T10:11:56.418Z,6.30
2018-09-18T10:12:56.395Z,5.50
2018-09-18T10:13:56.415Z,5.60
2018-09-18T10:14:56.392Z,5.00
2018-09-18T10:15:56.389Z,7.00
2018-09-18T10:16:56.386Z,7.70
2018-09-18T10:17:56.511Z,8.00
2018-09-18T10:18:56.379Z,8.10
2018-09-18T10:19:56.380Z,5.40
2018-09-18T10:20:56.380Z,6.00
2018-09-18T10:21:56.376Z,6.00
2018-09-18T10:22:56.387Z,6.20
2018-09-18T10:23:56.363Z,6.60
2018-09-18T10:24:56.410Z,6.50
2018-09-18T10:25:56.368Z,7.10
2018-09-18T10:26:56.496Z,7.60
2018-09-18T10:27:56.396Z,7.10
2018-09-18T10:28:56.416Z,6.30
2018-09-18T10:29:56.375Z,6.50
2018-09-18T10:30:56.346Z,7.70
2018-09-18T10:31:56.438Z,5.70
2018-09-18T10:32:56.346Z,7.00
2018-09-18T10:33:56.347Z,9.00
2018-09-18T10:34:56.357Z,9.40
2018-09-18T10:35:56.344Z,9.70
2018-09-18T10:36:56.345Z,7.10
2018-09-18T10:37:56.331Z,6.70
2018-09-18T10:38:56.384Z,7.20
2018-09-18T10:39:56.350Z,7.50
2018-09-18T10:40:56.441Z,7.50
2018-09-18T10:41:56.335Z,8.10
2018-09-18T10:42:56.351Z,9.10
2018-09-18T10:43:56.319Z,9.00
2018-09-18T10:44:56.337Z,9.30
2018-09-18T10:45:56.319Z,8.10
2018-09-18T10:46:56.305Z,6.00
2018-09-18T10:47:56.390Z,7.80
2018-09-18T10:48:56.302Z,9.10
2018-09-18T10:49:56.309Z,7.00
2018-09-18T10:50:56.321Z,8.10
2018-09-18T10:51:56.296Z,8.50
2018-09-18T10:52:56.296Z,7.40
2018-09-18T10:53:56.289Z,7.00
2018-09-18T10:54:56.286Z,8.00
2018-09-18T10:55:56.284Z,6.60
2018-09-18T10:56:56.300Z,5.40
2018-09-18T10:57:56.282Z,7.20
2018-09-18T10:58:56.274Z,8.10
2018-09-18T10:59:56.284Z,7.50
2018-09-18T11:00:56.320Z,8.10
2018-09-18T11:01:56.339Z,8.80
2018-09-18T11:02:56.290Z,5.50
2018-09-18T11:03:56.279Z,8.20
2018-09-18T11:04:56.260Z,6.40
2018-09-18T11:05:56.275Z,5.20
2018-09-18T11:06:56.385Z,6.70
2018-09-18T11:07:56.349Z,8.20
2018-09-18T11:08:56.295Z,15.50
2018-09-18T11:09:56.251Z,9.10
2018-09-18T11:10:56.272Z,6.10
2018-09-18T11:11:56.283Z,8.40
2018-09-18T11:12:56.266Z,8.70
2018-09-18T11:13:56.288Z,11.50
2018-09-18T11:14:56.264Z,12.90
2018-09-18T11:15:56.338Z,7.10
2018-09-18T11:16:56.311Z,7.10
2018-09-18T11:17:56.249Z,8.20
2018-09-18T11:18:56.242Z,7.70
2018-09-18T11:19:56.270Z,7.50
2018-09-18T11:20:56.253Z,8.70
2018-09-18T11:21:56.262Z,9.00
2018-09-18T11:22:56.246Z,6.90
2018-09-18T11:23:56.291Z,7.70
2018-09-18T11:24:56.226Z,7.00
2018-09-18T11:25:56.252Z,6.90
2018-09-18T11:26:56.274Z,6.80
2018-09-18T11:27:56.242Z,7.90
2018-09-18T11:28:56.219Z,4.90
2018-09-18T11:29:56.257Z,5.50
2018-09-18T11:30:56.215Z,4.10
2018-09-18T11:31:56.215Z,5.90
2018-09-18T11:32:56.349Z,6.10
2018-09-18T11:33:56.222Z,6.10
2018-09-18T11:34:56.235Z,6.80
2018-09-18T11:35:56.206Z,6.50
2018-09-18T11:36:56.207Z,6.40
2018-09-18T11:37:56.200Z,6.80
2018-09-18T11:38:56.223Z,8.50
2018-09-18T11:39:56.197Z,9.80
2018-09-18T11:40:56.199Z,7.70
2018-09-18T11:41:56.198Z,4.80
2018-09-18T11:42:56.197Z,8.70
2018-09-18T11:43:56.194Z,5.30
2018-09-18T11:44:56.210Z,7.60
2018-09-18T11:45:56.307Z,6.70
2018-09-18T11:46:56.188Z,6.90
2018-09-18T11:47:56.188Z,10.60
2018-09-18T11:48:56.204Z,11.40
2018-09-18T11:49:56.188Z,16.60
2018-09-18T11:50:56.184Z,13.40
2018-09-18T11:51:56.188Z,19.70
2018-09-18T11:52:56.208Z,17.00
2018-09-18T11:53:56.181Z,9.80
2018-09-18T11:54:56.233Z,19.80
2018-09-18T11:55:56.188Z,14.40
2018-09-18T11:56:56.199Z,10.70
2018-09-18T11:57:56.185Z,6.30
2018-09-18T11:58:56.178Z,8.60
2018-09-18T11:59:56.191Z,6.20
2018-09-18T12:00:56.193Z,6.30
2018-09-18T12:01:56.175Z,6.20
2018-09-18T12:02:56.186Z,6.00
2018-09-18T12:03:56.179Z,4.40
2018-09-18T12:04:56.203Z,12.20
2018-09-18T12:05:56.198Z,10.20
2018-09-18T12:06:56.175Z,5.50
2018-09-18T12:07:56.172Z,6.70
2018-09-18T12:08:56.172Z,7.10
2018-09-18T12:09:56.166Z,13.00
2018-09-18T12:10:56.165Z,8.60
2018-09-18T12:11:56.179Z,9.90
2018-09-18T12:12:56.161Z,21.20
2018-09-18T12:13:56.164Z,15.50
2018-09-18T12:14:56.161Z,12.70
2018-09-18T12:15:56.179Z,7.60
2018-09-18T12:16:56.220Z,7.40
2018-09-18T12:17:56.173Z,6.20
2018-09-18T12:18:56.151Z,7.60
2018-09-18T12:19:56.155Z,8.00
2018-09-18T12:20:56.155Z,6.30
2018-09-18T12:21:56.224Z,4.70
2018-09-18T12:22:56.170Z,7.60
2018-09-18T12:23:56.151Z,4.20
2018-09-18T12:24:56.148Z,6.40
2018-09-18T12:25:56.148Z,4.30
2018-09-18T12:26:56.160Z,7.40
2018-09-18T12:27:56.299Z,5.00
2018-09-18T12:28:56.143Z,5.20
2018-09-18T12:29:56.138Z,5.10
2018-09-18T12:30:56.149Z,7.00
2018-09-18T12:31:56.136Z,6.10
2018-09-18T12:32:56.137Z,4.20
2018-09-18T12:33:56.149Z,6.70
2018-09-18T12:34:56.132Z,6.10
2018-09-18T12:35:56.129Z,9.40
2018-09-18T12:36:56.129Z,7.30
2018-09-18T12:37:57.099Z,6.70
2018-09-18T12:38:56.123Z,7.80
2018-09-18T12:39:56.134Z,8.40
2018-09-18T12:40:56.121Z,4.90
2018-09-18T12:41:56.227Z,7.70
2018-09-18T12:42:56.135Z,5.40
2018-09-18T12:43:56.129Z,6.30
2018-09-18T12:44:56.124Z,4.40
2018-09-18T12:45:56.107Z,6.70
2018-09-18T12:46:56.107Z,6.20
2018-09-18T12:47:56.137Z,7.20
2018-09-18T12:48:56.177Z,6.50
2018-09-18T12:49:56.493Z,6.00
2018-09-18T12:50:56.118Z,7.70
2018-09-18T12:51:56.097Z,5.70
2018-09-18T12:52:56.097Z,7.00
2018-09-18T12:53:56.125Z,5.60
2018-09-18T12:54:56.120Z,4.20
2018-09-18T12:55:56.109Z,5.30
2018-09-18T12:56:56.212Z,6.40
2018-09-18T12:57:56.085Z,5.90
2018-09-18T12:58:56.171Z,6.20
2018-09-18T12:59:56.163Z,5.80
2018-09-18T13:00:56.094Z,3.60
2018-09-18T13:01:56.076Z,4.60
2018-09-18T13:02:56.076Z,4.10
2018-09-18T13:03:56.073Z,5.90
2018-09-18T13:04:56.090Z,6.10
2018-09-18T13:05:56.121Z,5.60
2018-09-18T13:06:56.148Z,3.10
2018-09-18T13:07:56.084Z,7.20
2018-09-18T13:08:56.062Z,9.30
2018-09-18T13:09:56.095Z,6.40
2018-09-18T13:10:56.072Z,8.30
2018-09-18T13:11:56.070Z,7.60
2018-09-18T13:12:56.066Z,8.00
2018-09-18T13:13:56.073Z,7.40
2018-09-18T13:14:56.048Z,5.40
2018-09-18T13:15:56.076Z,5.50
2018-09-18T13:16:56.066Z,5.80
2018-09-18T13:17:56.047Z,5.20
2018-09-18T13:18:56.035Z,6.00